Time,TemperatureF,DewpointF,PressureIn,WindDirection,WindDirectionDegrees,WindSpeedMPH,WindSpeedGustMPH,Humidity,HourlyPrecipIn,Conditions,Clouds,dailyrainin,SoftwareType,DateUTC
2013-07-29 00:13:00,78.3,78.0,29.98,North,-999,0.0,-999.0,100,-99.99,,,0.00,weatherlink.com 1.10,2013-07-29 04:13:00,
2013-07-29 01:13:00,78.3,78.0,29.97,North,-999,0.0,-999.0,100,-99.99,,,0.00,weatherlink.com 1.10,2013-07-29 05:13:00,
2013-07-29 01:28:00,78.8,79.0,29.97,SW,221,0.0,-999.0,100,-99.99,,,0.00,weatherlink.com 1.10,2013-07-29 05:28:00,
2013-07-29 01:58:00,78.8,79.0,29.96,SW,224,0.0,-999.0,100,-99.99,,,0.00,weatherlink.com 1.10,2013-07-29 05:58:00,
2013-07-29 02:13:00,78.5,79.0,29.95,SW,224,0.0,-999.0,100,-99.99,,,0.00,weatherlink.com 1.10,2013-07-29 06:13:00,
2013-07-29 02:28:00,77.7,78.0,29.95,SW,224,0.0,-999.0,100,-99.99,,,0.00,weatherlink.com 1.10,2013-07-29 06:28:00,
2013-07-29 03:43:00,77.4,77.0,29.95,SW,224,0.0,-999.0,100,-99.99,,,0.00,weatherlink.com 1.10,2013-07-29 07:43:00,
2013-07-29 03:58:00,77.2,77.0,29.95,SW,224,0.0,-999.0,100,-99.99,,,0.00,weatherlink.com 1.10,2013-07-29 07:58:00,
2013-07-29 04:42:00,76.3,76.0,29.95,SW,224,0.0,-999.0,100,-99.99,,,0.00,weatherlink.com 1.10,2013-07-29 08:42:00,
2013-07-29 04:57:00,76.1,76.0,29.96,SW,224,0.0,-999.0,100,-99.99,,,0.00,weatherlink.com 1.10,2013-07-29 08:57:00,
2013-07-29 05:28:00,76.7,77.0,29.96,SW,224,0.0,-999.0,100,-99.99,,,0.00,weatherlink.com 1.10,2013-07-29 09:28:00,
2013-07-29 05:58:00,76.0,76.0,29.95,SW,224,0.0,-999.0,100,-99.99,,,0.00,weatherlink.com 1.10,2013-07-29 09:58:00,
2013-07-29 06:13:00,76.0,76.0,29.96,SW,224,0.0,-999.0,100,-99.99,,,0.00,weatherlink.com 1.10,2013-07-29 10:13:00,
2013-07-29 06:58:00,76.7,77.0,29.97,SW,224,0.0,-999.0,100,-99.99,,,0.00,weatherlink.com 1.10,2013-07-29 10:58:00,
2013-07-29 07:13:00,76.7,77.0,29.98,SW,224,0.0,-999.0,100,-99.99,,,0.00,weatherlink.com 1.10,2013-07-29 11:13:00,
2013-07-29 07:29:00,77.0,77.0,29.99,SW,224,0.0,-999.0,100,-99.99,,,0.00,weatherlink.com 1.10,2013-07-29 11:29:00,
2013-07-29 07:59:00,78.6,79.0,30.00,SW,224,0.0,-999.0,100,-99.99,,,0.00,weatherlink.com 1.10,2013-07-29 11:59:00,
2013-07-29 08:14:00,80.3,80.0,30.00,SW,224,0.0,-999.0,100,-99.99,,,0.00,weatherlink.com 1.10,2013-07-29 12:14:00,
2013-07-29 08:29:00,80.7,81.0,30.01,SW,224,0.0,-999.0,100,-99.99,,,0.00,weatherlink.com 1.10,2013-07-29 12:29:00,
2013-07-29 09:14:00,81.8,82.0,30.03,SW,224,0.0,-999.0,100,-99.99,,,0.00,weatherlink.com 1.10,2013-07-29 13:14:00,
2013-07-29 09:28:00,82.8,83.0,30.03,SW,224,0.0,-999.0,100,-99.99,,,0.00,weatherlink.com 1.10,2013-07-29 13:28:00,
2013-07-29 09:59:00,84.3,84.0,30.03,SW,224,0.0,-999.0,100,-99.99,,,0.00,weatherlink.com 1.10,2013-07-29 13:59:00,
2013-07-29 10:14:00,85.5,86.0,30.03,SW,224,0.0,-999.0,100,-99.99,,,0.00,weatherlink.com 1.10,2013-07-29 14:14:00,
2013-07-29 10:29:00,86.1,86.0,30.03,East,101,1.0,-999.0,100,-99.99,,,0.00,weatherlink.com 1.10,2013-07-29 14:29:00,
2013-07-29 10:44:00,86.1,86.0,30.04,East,84,0.0,-999.0,100,-99.99,,,0.00,weatherlink.com 1.10,2013-07-29 14:44:00,
2013-07-29 11:43:00,89.3,89.0,30.04,ENE,71,0.0,-999.0,100,-99.99,,,0.00,weatherlink.com 1.10,2013-07-29 15:43:00,
2013-07-29 11:58:00,89.3,89.0,30.04,East,91,0.0,-999.0,100,-99.99,,,0.00,weatherlink.com 1.10,2013-07-29 15:58:00,
2013-07-29 12:13:00,90.1,90.0,30.04,East,87,0.0,-999.0,100,-99.99,,,0.00,weatherlink.com 1.10,2013-07-29 16:13:00,
2013-07-29 12:29:00,89.7,90.0,30.04,ENE,66,2.0,-999.0,100,-99.99,,,0.00,weatherlink.com 1.10,2013-07-29 16:29:00,
2013-07-29 12:43:00,90.7,91.0,30.03,ENE,64,2.0,-999.0,100,-99.99,,,0.00,weatherlink.com 1.10,2013-07-29 16:43:00,
2013-07-29 12:59:00,88.6,89.0,30.03,ENE,68,4.0,-999.0,100,-99.99,,,0.00,weatherlink.com 1.10,2013-07-29 16:59:00,
2013-07-29 13:14:00,88.6,89.0,30.04,ENE,75,0.0,-999.0,100,-99.99,,,0.00,weatherlink.com 1.10,2013-07-29 17:14:00,
2013-07-29 14:14:00,85.9,86.0,30.03,ESE,115,0.0,-999.0,100,-99.99,,,0.00,weatherlink.com 1.10,2013-07-29 18:14:00,
2013-07-29 14:29:00,84.5,85.0,30.03,ENE,69,0.0,-999.0,100,-99.99,,,0.00,weatherlink.com 1.10,2013-07-29 18:29:00,
2013-07-29 14:44:00,84.9,85.0,30.03,East,91,0.0,-999.0,100,-99.99,,,0.00,weatherlink.com 1.10,2013-07-29 18:44:00,
2013-07-29 16:15:00,87.2,87.0,30.02,East,82,0.0,-999.0,100,-99.99,,,0.00,weatherlink.com 1.10,2013-07-29 20:15:00,
2013-07-29 16:44:00,87.2,87.0,30.01,ENE,64,0.0,-999.0,100,-99.99,,,0.00,weatherlink.com 1.10,2013-07-29 20:44:00,
2013-07-29 17:44:00,85.5,86.0,30.01,SE,124,0.0,-999.0,100,-99.99,,,0.00,weatherlink.com 1.10,2013-07-29 21:44:00,
2013-07-29 17:59:00,84.1,84.0,30.00,ESE,106,0.0,-999.0,100,-99.99,,,0.00,weatherlink.com 1.10,2013-07-29 21:59:00,
2013-07-29 18:14:00,83.6,84.0,30.01,SE,143,0.0,-999.0,100,-99.99,,,0.00,weatherlink.com 1.10,2013-07-29 22:14:00,
2013-07-29 18:29:00,83.4,83.0,30.00,ENE,73,0.0,-999.0,100,-99.99,,,0.00,weatherlink.com 1.10,2013-07-29 22:29:00,
2013-07-29 19:00:00,83.0,83.0,30.01,East,85,0.0,-999.0,100,-99.99,,,0.00,weatherlink.com 1.10,2013-07-29 23:00:00,
2013-07-29 19:15:00,83.2,83.0,30.02,ESE,108,0.0,-999.0,100,-99.99,,,0.00,weatherlink.com 1.10,2013-07-29 23:15:00,
2013-07-29 19:30:00,83.0,83.0,30.01,ESE,105,3.0,-999.0,100,-99.99,,,0.00,weatherlink.com 1.10,2013-07-29 23:30:00,
2013-07-29 20:00:00,82.6,83.0,30.02,SSE,149,1.0,-999.0,100,-99.99,,,0.00,weatherlink.com 1.10,2013-07-30 00:00:00,
2013-07-29 21:15:00,80.7,81.0,30.04,East,98,0.0,-999.0,100,-99.99,,,0.00,weatherlink.com 1.10,2013-07-30 01:15:00,
2013-07-29 21:45:00,80.3,80.0,30.05,East,98,0.0,-999.0,100,-99.99,,,0.00,weatherlink.com 1.10,2013-07-30 01:45:00,
2013-07-29 22:00:00,80.1,80.0,30.05,East,98,0.0,-999.0,100,-99.99,,,0.00,weatherlink.com 1.10,2013-07-30 02:00:00,
2013-07-29 22:30:00,79.8,80.0,30.06,East,98,0.0,-999.0,100,-99.99,,,0.00,weatherlink.com 1.10,2013-07-30 02:30:00,
2013-07-29 22:45:00,79.8,80.0,30.06,East,98,0.0,-999.0,100,-99.99,,,0.00,weatherlink.com 1.10,2013-07-30 02:45:00,
2013-07-29 23:30:00,79.4,79.0,30.06,East,98,0.0,-999.0,100,-99.99,,,0.00,weatherlink.com 1.10,2013-07-30 03:30:00,